• Join FlightAware (Why Join?)
  • Login
  • US Flag 
04:51AM EST


 

Airport Tracker/Info


-or-


 

Live Flight TrackerFlight Track Log ✈ KAP927 ✈ 02-May-2013 ✈ KBOS - KALB

Flight Track Log - Related Links

Times and Time Zones

All times are in EDT time to prevent confusion due to time zone crossing. See the KAP927 flight status page for this flight to view local times or setup timezone preferences in your user account.

Time Position Orientation Groundspeed Altitude Reporting Facility
EDT Latitude Longitude Course Direction KTS MPH feet Rate Location/Type
12:59PM 42.3833 -71.0000 294° West 105 121 400  Level KA90
01:00PM 42.4000 -71.0500 294° West 129 148 1,400 780 Climbing KA90
01:01PM 42.4000 -71.0833 270° West 125 144 2,300 780 Climbing KA90
01:02PM 42.4000 -71.1333 270° West 126 145 3,000 600 Climbing KA90
01:03PM 42.3833 -71.1833 246° West 129 148 3,600 600 Climbing KA90
01:04PM 42.3833 -71.2333 270° West 137 158 4,200 480 Climbing KA90
01:05PM 42.3672 -71.2628 233° Southwest 138 159 4,500 600 Climbing Boston Center
01:06PM 42.3553 -71.3192 254° West 143 165 5,300 600 Climbing Boston Center
01:07PM 42.3597 -71.3611 278° West 142 163 5,800 480 Climbing Boston Center
01:08PM 42.3708 -71.4200 284° West 142 163 6,300 300 Climbing Boston Center
01:09PM 42.3794 -71.4678 284° West 148 170 6,500 60 Climbing Boston Center
01:10PM 42.3864 -71.5378 278° West 161 185 6,500  Level Boston Center
01:11PM 42.3994 -71.5911 288° West 166 191 6,500  Level Boston Center
01:12PM 42.4103 -71.6556 283° West 166 191 6,500  Level Boston Center
01:13PM 42.4189 -71.7089 282° West 161 185 6,500  Level Boston Center
01:14PM 42.4297 -71.7764 282° West 161 185 6,500  Level Boston Center
01:15PM 42.4406 -71.8325 285° West 161 185 6,500  Level Boston Center
01:16PM 42.4511 -71.9028 282° West 161 185 6,500  Level Boston Center
01:17PM 42.4597 -71.9561 282° West 161 185 6,500 -60 Level Boston Center
01:18PM 42.4706 -72.0206 283° West 161 185 6,400 180 Descending Boston Center
01:19PM 42.4811 -72.0769 284° West 156 180 6,900 540 Climbing Boston Center
01:20PM 42.4894 -72.1247 283° West 143 165 7,500 720 Climbing Boston Center
01:21PM 42.4981 -72.1783 282° West 143 165 8,400 540 Climbing Boston Center
01:22PM 42.5064 -72.2400 280° West 153 176 8,600  Climbing Boston Center
01:23PM 42.5169 -72.2992 284° West 169 194 8,500 -60 Descending Boston Center
01:24PM 42.5275 -72.3639 282° West 174 200 8,500  Level Boston Center
01:25PM 42.5381 -72.4289 282° West 181 208 8,500  Level Boston Center
01:26PM 42.5483 -72.4936 282° West 181 208 8,600  Climbing Boston Center
01:27PM 42.5586 -72.5583 282° West 181 208 8,500  Descending Boston Center
01:28PM 42.5669 -72.6092 283° West 181 208 8,600  Climbing Boston Center
01:29PM 42.5772 -72.6825 281° West 181 208 8,500 -60 Descending Boston Center
01:30PM 42.5897 -72.7558 283° West 181 208 8,500  Level Boston Center
01:31PM 42.6000 -72.8125 284° West 181 208 8,500  Level Boston Center
01:32PM 42.6061 -72.8519 282° West 166 191 8,500  Level Boston Center
01:32PM 42.6142 -72.8744 296° West 181 208 8,500 -120 Level Boston Center
01:33PM 42.6183 -72.9083 279° West 165 190 8,400  Descending Boston Center
01:33PM 42.6244 -72.9367 286° West 181 208 8,500  Climbing Boston Center
01:34PM 42.6283 -72.9733 278° West 168 193 8,400 -240 Descending Boston Center
01:34PM 42.6303 -73.0044 275° West 181 208 8,300 -300 Descending Boston Center
01:35PM 42.6364 -73.0328 286° West 168 193 8,100 -600 Descending Boston Center
01:35PM 42.6406 -73.0667 279° West 176 203 7,700 -720 Descending Boston Center
01:36PM 42.6486 -73.1092 284° West 192 221 7,400 -600 Descending Boston Center
01:37PM 42.6628 -73.1825 285° West 197 227 6,800 -660 Descending Boston Center
01:37PM 42.6667 -73.2108 281° West 192 221 6,500 -840 Descending Boston Center
01:38PM 42.6725 -73.2533 281° West 199 229 6,000 -840 Descending Boston Center
01:38PM 42.6808 -73.2817 292° West 198 228 5,700 -480 Descending Boston Center
01:39PM 42.6992 -73.3244 300° West 190 219 5,500 -300 Descending Boston Center
01:39PM 42.7011 -73.3469 277° West 198 228 5,400 -600 Descending Boston Center
01:40PM 42.7008 -73.3836 269° West 169 194 5,000 -600 Descending Boston Center
01:40PM 42.7006 -73.4092 269° West 174 200 4,800 -480 Descending Boston Center
01:41PM 42.7003 -73.4458 269° West 170 196 4,600 -540 Descending Boston Center
01:41PM 42.7019 -73.4742 275° West 174 200 4,300 -420 Descending Boston Center
01:42PM 42.7017 -73.5081 269° West 171 197 4,200 -420 Descending Boston Center
01:42PM 42.6911 -73.5389 245° Southwest 179 206 3,900 -600 Descending Boston Center
01:43PM 42.6825 -73.5697 249° West 170 196 3,600 -420 Descending Boston Center
01:43PM 42.6761 -73.5811 233° Southwest 179 206 3,500 -480 Descending Boston Center
01:44PM 42.6528 -73.6258 235° Southwest 162 186 3,100 -420 Descending Boston Center
01:44PM 42.6506 -73.6397 258° West 174 200 3,100 -120 Level Boston Center
01:45PM 42.6336 -73.6647 227° Southwest 149 171 3,000 -120 Descending Boston Center
01:45PM 42.6250 -73.6761 224° Southwest 158 182 3,000 -120 Level Boston Center
01:46PM 42.6017 -73.7150 231° Southwest 139 160 2,900 -60 Descending Boston Center
01:47PM 42.6031 -73.7631 272° West 135 155 2,900 -180 Level Boston Center
01:48PM 42.6300 -73.7947 319° Northwest 141 162 2,600 -540 Descending Boston Center
01:49PM 42.6672 -73.8039 350° North 135 155 1,900 -780 Descending Boston Center
01:50PM 42.7006 -73.8075 355° North 128 147 1,200 -780 Descending Boston Center
01:52PM 42.7333 -73.8000 345° North  Level FlightAware Approximate
01:59PM 42.7491 -73.8020 345° North  Level Estimated
02:00PM 42.7491 -73.8020 345° North  Level Estimated
02:01PM 42.7491 -73.8020 345° North  Level Estimated